createdAt,value
2023-02-17T00:00:56.506Z,96987.16
2023-02-17T00:03:24.181Z,97009.41
2023-02-17T00:05:51.522Z,96956.03
2023-02-17T00:08:18.363Z,96980.22
2023-02-17T00:10:45.013Z,97003.97
2023-02-17T00:13:14.520Z,96987.88
2023-02-17T00:15:41.216Z,96971.97
2023-02-17T00:18:07.812Z,96979.44
2023-02-17T00:20:34.420Z,96961.84
2023-02-17T00:23:01.030Z,96981.50
2023-02-17T00:25:27.679Z,97003.03
2023-02-17T00:27:54.322Z,96984.66
2023-02-17T00:30:21.127Z,96975.34
2023-02-17T00:32:48.207Z,97000.41
2023-02-17T00:35:14.896Z,96984.78
2023-02-17T00:37:45.462Z,96960.19
2023-02-17T00:40:13.378Z,97000.66
2023-02-17T00:42:40.062Z,96998.66
2023-02-17T00:45:07.707Z,96972.59
2023-02-17T00:47:34.378Z,96964.63
2023-02-17T00:50:01.003Z,96972.97
2023-02-17T00:52:27.699Z,96968.25
2023-02-17T00:54:54.331Z,96923.50
2023-02-17T00:57:20.983Z,96991.56
2023-02-17T00:59:47.710Z,96988.97
2023-02-17T01:02:14.363Z,96997.69
2023-02-17T01:04:40.989Z,96961.22
2023-02-17T01:07:07.592Z,96979.00
2023-02-17T01:09:34.311Z,96962.25
2023-02-17T01:12:00.940Z,96983.31
2023-02-17T01:14:27.618Z,96992.38
2023-02-17T01:16:55.864Z,96943.19
2023-02-17T01:19:22.500Z,96956.56
2023-02-17T01:21:49.371Z,96985.59
2023-02-17T01:24:15.978Z,96935.03
2023-02-17T01:26:42.564Z,96944.63
2023-02-17T01:29:09.288Z,96959.06
2023-02-17T01:31:36.357Z,96976.06
2023-02-17T01:34:04.352Z,96977.34
2023-02-17T01:36:31.466Z,96936.00
2023-02-17T01:38:58.927Z,96955.69
2023-02-17T01:41:27.102Z,96944.47
2023-02-17T01:44:04.793Z,96932.75
2023-02-17T01:46:36.110Z,96921.06
2023-02-17T01:49:12.023Z,96919.44
2023-02-17T01:51:39.255Z,96947.47
2023-02-17T01:54:22.325Z,96902.47
2023-02-17T01:56:50.515Z,96905.75
2023-02-17T01:59:20.019Z,96925.47
2023-02-17T02:01:52.666Z,96888.81
2023-02-17T02:04:22.768Z,96928.75
2023-02-17T02:06:49.489Z,96920.63
2023-02-17T02:09:23.461Z,96916.47
2023-02-17T02:11:51.643Z,96869.19
2023-02-17T02:14:20.964Z,96905.28
2023-02-17T02:17:13.268Z,96903.59
2023-02-17T02:19:57.992Z,96905.59
2023-02-17T02:22:25.484Z,96890.81
2023-02-17T02:25:09.218Z,96909.78
2023-02-17T02:27:51.341Z,96867.56
2023-02-17T02:30:39.494Z,96891.44
2023-02-17T02:33:24.168Z,96890.16
2023-02-17T02:35:53.082Z,96890.94
2023-02-17T02:38:46.925Z,96852.47
2023-02-17T02:41:21.202Z,96856.38
2023-02-17T02:43:50.266Z,96842.84
2023-02-17T02:46:16.890Z,96814.28
2023-02-17T02:48:44.217Z,96872.75
2023-02-17T02:51:14.102Z,96880.84
2023-02-17T02:53:46.122Z,96824.63
2023-02-17T02:56:39.332Z,96880.94
2023-02-17T02:59:31.036Z,96877.91
2023-02-17T03:02:11.302Z,96879.25
2023-02-17T03:04:48.682Z,96857.75
2023-02-17T03:07:22.017Z,96855.63
2023-02-17T03:09:51.707Z,96849.16
2023-02-17T03:12:19.647Z,96847.66
2023-02-17T03:14:50.057Z,96859.16
2023-02-17T03:17:17.187Z,96859.28
2023-02-17T03:19:49.067Z,96852.25
2023-02-17T03:22:29.826Z,96835.84
2023-02-17T03:24:56.448Z,96834.50
2023-02-17T03:27:23.093Z,96858.28
2023-02-17T03:29:49.764Z,96825.34
2023-02-17T03:32:18.512Z,96846.00
2023-02-17T03:34:45.094Z,96817.69
2023-02-17T03:37:11.871Z,96863.94
2023-02-17T03:39:38.461Z,96847.16
2023-02-17T03:42:05.147Z,96830.25
2023-02-17T03:44:31.725Z,96832.06
2023-02-17T03:46:58.287Z,96824.03
2023-02-17T03:49:24.949Z,96859.13
2023-02-17T03:51:51.495Z,96854.44
2023-02-17T03:54:18.067Z,96836.66
2023-02-17T03:56:44.690Z,96823.94
2023-02-17T03:59:11.321Z,96860.63
2023-02-17T04:01:37.965Z,96836.84
2023-02-17T04:04:04.826Z,96833.41
2023-02-17T04:06:31.498Z,96854.31
2023-02-17T04:08:58.095Z,96818.72
2023-02-17T04:11:24.729Z,96797.31
2023-02-17T04:13:51.278Z,96816.25
2023-02-17T04:16:18.894Z,96825.41
2023-02-17T04:18:45.859Z,96792.97
2023-02-17T04:21:12.582Z,96802.91
2023-02-17T04:23:39.684Z,96806.53
2023-02-17T04:26:08.569Z,96837.06
2023-02-17T04:28:38.496Z,96826.69
2023-02-17T04:31:05.275Z,96833.25
2023-02-17T04:33:31.975Z,96824.63
2023-02-17T04:36:01.521Z,96809.13
2023-02-17T04:38:32.146Z,96835.50
2023-02-17T04:41:00.603Z,96818.91
2023-02-17T04:43:28.333Z,96840.53
2023-02-17T04:45:55.285Z,96812.59
2023-02-17T04:48:22.350Z,96837.69
2023-02-17T04:50:49.100Z,96821.66
2023-02-17T04:53:15.914Z,96803.94
2023-02-17T04:55:43.038Z,96835.06
2023-02-17T04:58:10.819Z,96796.19
2023-02-17T05:00:37.529Z,96827.56
2023-02-17T05:03:04.159Z,96821.06
2023-02-17T05:05:31.044Z,96791.53
2023-02-17T05:07:57.690Z,96812.16
2023-02-17T05:10:24.322Z,96763.31
2023-02-17T05:12:51.024Z,96783.44
2023-02-17T05:15:17.673Z,96787.66
2023-02-17T05:17:44.339Z,96803.09
2023-02-17T05:20:11.690Z,96764.59
2023-02-17T05:22:38.535Z,96802.25
2023-02-17T05:25:05.915Z,96776.97
2023-02-17T05:27:33.424Z,96791.38
2023-02-17T05:30:00.103Z,96784.78
2023-02-17T05:32:27.148Z,96786.91
2023-02-17T05:34:54.080Z,96762.16
2023-02-17T05:37:20.843Z,96789.78
2023-02-17T05:39:47.539Z,96767.28
2023-02-17T05:42:14.220Z,96791.56
2023-02-17T05:44:41.058Z,96763.53
2023-02-17T05:47:07.743Z,96799.28
2023-02-17T05:49:34.347Z,96798.78
2023-02-17T05:52:02.376Z,96796.25
2023-02-17T05:54:29.030Z,96768.97
2023-02-17T05:56:55.666Z,96751.97
2023-02-17T05:59:22.368Z,96757.22
2023-02-17T06:01:49.024Z,96731.84
2023-02-17T06:04:15.754Z,96767.66
2023-02-17T06:06:42.446Z,96778.09
2023-02-17T06:09:09.069Z,96778.59
2023-02-17T06:11:35.687Z,96758.53
2023-02-17T06:14:02.367Z,96777.06
2023-02-17T06:16:29.132Z,96772.94
2023-02-17T06:18:55.754Z,96766.16
2023-02-17T06:21:22.429Z,96761.47
2023-02-17T06:23:49.015Z,96770.31
2023-02-17T06:26:15.821Z,96740.56
2023-02-17T06:28:42.382Z,96732.44
2023-02-17T06:31:09.054Z,96732.78
2023-02-17T06:33:35.737Z,96765.69
2023-02-17T06:36:02.592Z,96769.59
2023-02-17T06:38:29.256Z,96748.97
2023-02-17T06:40:55.879Z,96744.28
2023-02-17T06:43:22.444Z,96736.47
2023-02-17T06:45:49.041Z,96745.16
2023-02-17T06:48:15.703Z,96765.25
2023-02-17T06:50:42.327Z,96761.59
2023-02-17T06:53:08.917Z,96734.78
2023-02-17T06:55:37.232Z,96752.72
2023-02-17T06:58:04.025Z,96774.41
2023-02-17T07:00:30.941Z,96772.59
2023-02-17T07:02:57.711Z,96721.34
2023-02-17T07:05:24.354Z,96734.41
2023-02-17T07:07:53.236Z,96774.84
2023-02-17T07:10:20.172Z,96738.63
2023-02-17T07:12:46.764Z,96781.16
2023-02-17T07:15:14.364Z,96760.78
2023-02-17T07:17:41.101Z,96781.34
2023-02-17T07:20:09.318Z,96783.38
2023-02-17T07:22:36.021Z,96795.91
2023-02-17T07:25:02.684Z,96746.91
2023-02-17T07:27:29.312Z,96792.25
2023-02-17T07:29:55.962Z,96781.53
2023-02-17T07:32:22.721Z,96768.47
2023-02-17T07:34:49.406Z,96787.94
2023-02-17T07:37:16.073Z,96722.66
2023-02-17T07:39:42.682Z,96745.59
2023-02-17T07:42:11.466Z,96689.28
2023-02-17T07:44:39.016Z,96720.56
2023-02-17T07:47:05.663Z,96726.19
2023-02-17T07:49:32.274Z,96750.78
2023-02-17T07:51:58.940Z,96676.41
2023-02-17T07:54:25.563Z,96778.84
2023-02-17T07:56:52.121Z,96751.91
2023-02-17T07:59:18.847Z,96758.88
2023-02-17T08:01:45.523Z,96787.91
2023-02-17T08:04:12.215Z,96761.09
2023-02-17T08:06:42.222Z,96797.44
2023-02-17T08:09:28.733Z,96751.81
2023-02-17T08:12:14.059Z,96775.94
2023-02-17T08:14:40.762Z,96807.47
2023-02-17T08:17:07.674Z,96781.88
2023-02-17T08:19:47.560Z,96801.16
2023-02-17T08:22:17.220Z,96814.59
2023-02-17T08:24:44.389Z,96793.03
2023-02-17T08:27:11.126Z,96735.44
2023-02-17T08:29:37.988Z,96800.22
2023-02-17T08:32:04.841Z,96758.22
2023-02-17T08:34:34.499Z,96740.69
2023-02-17T08:37:02.222Z,96785.66
2023-02-17T08:39:29.416Z,96796.53
2023-02-17T08:41:56.716Z,96795.88
2023-02-17T08:44:23.388Z,96757.88
2023-02-17T08:46:51.654Z,96716.25
2023-02-17T08:49:21.191Z,96794.56
2023-02-17T08:51:48.233Z,96753.84
2023-02-17T08:54:15.392Z,96770.44
2023-02-17T08:56:43.153Z,96788.41
2023-02-17T08:59:11.440Z,96740.53
2023-02-17T09:01:39.022Z,96761.81
2023-02-17T09:04:07.541Z,96754.94
2023-02-17T09:06:39.939Z,96783.22
2023-02-17T09:09:09.334Z,96729.44
2023-02-17T09:11:36.379Z,96753.66
2023-02-17T09:14:04.008Z,96788.75
2023-02-17T09:16:30.995Z,96797.63
2023-02-17T09:18:57.700Z,96768.47
2023-02-17T09:21:24.784Z,96786.44
2023-02-17T09:23:53.703Z,96788.91
2023-02-17T09:26:21.138Z,96727.50
2023-02-17T09:28:48.173Z,96717.63
2023-02-17T09:31:17.137Z,96787.22
2023-02-17T09:33:44.615Z,96781.75
2023-02-17T09:36:14.902Z,96688.88
2023-02-17T09:38:42.156Z,96788.66
2023-02-17T09:41:29.075Z,96777.03
2023-02-17T09:43:55.978Z,96734.03
2023-02-17T09:46:36.700Z,96699.38
2023-02-17T09:49:15.650Z,96767.50
2023-02-17T09:51:44.378Z,96761.75
2023-02-17T09:54:41.522Z,96780.81
2023-02-17T09:57:15.770Z,96785.94
2023-02-17T09:59:48.844Z,96648.66
2023-02-17T10:02:39.273Z,96778.78
2023-02-17T10:05:09.463Z,96798.28
2023-02-17T10:07:43.962Z,96795.91
2023-02-17T10:10:18.405Z,96732.25
2023-02-17T10:12:50.208Z,96791.53
2023-02-17T10:15:21.002Z,96805.34
2023-02-17T10:18:17.166Z,96796.78
2023-02-17T10:20:57.059Z,96794.44
2023-02-17T10:23:26.336Z,96812.09
2023-02-17T10:25:58.862Z,96811.00
2023-02-17T10:28:28.498Z,96817.25
2023-02-17T10:31:13.213Z,96834.56
2023-02-17T10:33:56.441Z,96814.88
2023-02-17T10:36:51.983Z,96807.69
2023-02-17T10:39:24.733Z,96824.06
2023-02-17T10:41:54.807Z,96793.28
2023-02-17T10:44:25.032Z,96794.97
2023-02-17T10:46:54.096Z,96750.16
2023-02-17T10:49:32.886Z,96803.66
2023-02-17T10:52:03.074Z,96632.31
2023-02-17T10:54:36.011Z,96799.31
2023-02-17T10:57:07.806Z,96770.09
2023-02-17T10:59:41.061Z,96780.50
2023-02-17T11:02:28.028Z,96790.75
2023-02-17T11:04:55.203Z,96750.91
2023-02-17T11:07:44.142Z,96746.63
2023-02-17T11:10:40.206Z,96781.81
2023-02-17T11:13:32.710Z,96784.72
2023-02-17T11:16:00.259Z,96765.34
2023-02-17T11:18:32.557Z,96779.97
2023-02-17T11:21:08.464Z,96782.00
2023-02-17T11:23:35.921Z,96774.31
2023-02-17T11:26:17.039Z,96772.94
2023-02-17T11:28:43.617Z,96760.78
2023-02-17T11:31:28.188Z,96767.81
2023-02-17T11:33:56.974Z,96707.91
2023-02-17T11:36:25.531Z,96771.09
2023-02-17T11:38:52.405Z,96762.13
2023-02-17T11:41:20.362Z,96721.94
2023-02-17T11:43:59.246Z,96755.84
2023-02-17T11:46:31.721Z,96751.91
2023-02-17T11:49:13.560Z,96751.63
2023-02-17T11:51:46.414Z,96745.22
2023-02-17T11:54:16.043Z,96739.94
2023-02-17T11:56:57.653Z,96705.09
2023-02-17T11:59:51.994Z,96718.53
2023-02-17T12:02:44.315Z,96708.22
2023-02-17T12:05:19.079Z,96739.00
2023-02-17T12:07:53.840Z,96724.00
2023-02-17T12:10:51.855Z,96708.00
2023-02-17T12:13:42.650Z,96740.72
2023-02-17T12:16:18.350Z,96746.47
2023-02-17T12:18:58.391Z,96742.41
2023-02-17T12:21:43.780Z,96726.63
2023-02-17T12:24:10.409Z,96735.00
2023-02-17T12:26:42.037Z,96726.22
2023-02-17T12:29:31.248Z,96735.28
2023-02-17T12:32:20.328Z,96705.50
2023-02-17T12:34:53.898Z,96732.94
2023-02-17T12:37:28.835Z,96729.13
2023-02-17T12:40:04.083Z,96723.28
2023-02-17T12:42:37.133Z,96705.47
2023-02-17T12:45:16.080Z,96733.72
2023-02-17T12:47:59.416Z,96642.91
2023-02-17T12:50:28.081Z,96716.19
2023-02-17T12:52:59.378Z,96705.31
2023-02-17T12:55:36.453Z,96734.09
2023-02-17T12:58:15.931Z,96695.66
2023-02-17T13:00:47.081Z,96707.63
2023-02-17T13:03:13.848Z,96704.72
2023-02-17T13:05:51.748Z,96705.78
2023-02-17T13:08:58.964Z,96709.84
2023-02-17T13:11:35.571Z,96731.75
2023-02-17T13:14:27.393Z,96667.44
2023-02-17T13:16:54.488Z,96675.91
2023-02-17T13:19:32.030Z,96727.28
2023-02-17T13:22:02.248Z,96741.06
2023-02-17T13:24:50.580Z,96692.44
2023-02-17T13:27:30.144Z,96720.53
2023-02-17T13:30:29.045Z,96710.81
2023-02-17T13:33:20.535Z,96711.16
2023-02-17T13:35:47.490Z,96648.13
2023-02-17T13:38:25.375Z,96697.84
2023-02-17T13:40:52.543Z,96624.88
2023-02-17T13:43:19.943Z,96688.25
2023-02-17T13:45:58.077Z,96662.97
2023-02-17T13:48:28.720Z,96687.97
2023-02-17T13:51:02.603Z,96686.09
2023-02-17T13:53:40.826Z,96619.41
2023-02-17T13:56:09.718Z,96694.38
2023-02-17T13:58:41.302Z,96664.81
2023-02-17T14:01:16.192Z,96694.25
2023-02-17T14:03:47.560Z,96694.09
2023-02-17T14:06:36.870Z,96662.16
2023-02-17T14:09:20.665Z,96674.13
2023-02-17T14:11:47.537Z,96638.81
2023-02-17T14:14:14.367Z,96668.38
2023-02-17T14:16:45.341Z,96605.72
2023-02-17T14:19:14.925Z,96625.66
2023-02-17T14:22:04.946Z,96688.06
2023-02-17T14:24:37.446Z,96673.75
2023-02-17T14:27:13.894Z,96604.59
2023-02-17T14:29:43.321Z,96662.38
2023-02-17T14:32:33.154Z,96677.59
2023-02-17T14:35:12.897Z,96638.66
2023-02-17T14:37:41.433Z,96667.13
2023-02-17T14:40:23.367Z,96648.31
2023-02-17T14:42:50.661Z,96641.56
2023-02-17T14:45:18.901Z,96630.50
2023-02-17T14:47:46.669Z,96617.03
2023-02-17T14:50:13.845Z,96645.03
2023-02-17T14:52:49.962Z,96623.16
2023-02-17T14:55:35.020Z,96606.66
2023-02-17T14:58:02.126Z,96625.41
2023-02-17T15:00:28.922Z,96617.66
2023-02-17T15:02:55.601Z,96599.66
2023-02-17T15:05:22.299Z,96636.19
2023-02-17T15:07:49.551Z,96574.91
2023-02-17T15:10:25.544Z,96633.28
2023-02-17T15:12:52.291Z,96517.72
2023-02-17T15:15:20.060Z,96608.44
2023-02-17T15:17:46.993Z,96571.50
2023-02-17T15:20:15.944Z,96628.06
2023-02-17T15:22:44.313Z,96536.44
2023-02-17T15:25:22.187Z,96634.28
2023-02-17T15:27:49.617Z,96553.19
2023-02-17T15:30:18.705Z,96632.00
2023-02-17T15:32:46.774Z,96640.38
2023-02-17T15:35:17.473Z,96611.81
2023-02-17T15:37:44.122Z,96643.91
2023-02-17T15:40:19.212Z,96616.09
2023-02-17T15:42:50.108Z,96661.28
2023-02-17T15:45:20.235Z,96679.13
2023-02-17T15:47:48.335Z,96642.28
2023-02-17T15:50:20.379Z,96683.13
2023-02-17T15:52:47.475Z,96658.25
2023-02-17T15:55:14.393Z,96687.75
2023-02-17T15:57:46.666Z,96685.09
2023-02-17T16:00:19.782Z,96648.16
2023-02-17T16:02:46.779Z,96673.84
2023-02-17T16:05:15.831Z,96662.00
2023-02-17T16:07:42.562Z,96699.78
2023-02-17T16:10:12.051Z,96644.38
2023-02-17T16:12:40.130Z,96663.41
2023-02-17T16:15:11.631Z,96672.53
2023-02-17T16:17:38.654Z,96653.09
2023-02-17T16:20:35.281Z,96660.16
2023-02-17T16:23:02.831Z,96656.59
2023-02-17T16:25:29.813Z,96644.72
2023-02-17T16:27:57.230Z,96682.38
2023-02-17T16:30:32.164Z,96689.34
2023-02-17T16:32:59.063Z,96671.94
2023-02-17T16:35:30.790Z,96704.72
2023-02-17T16:38:02.816Z,96700.81
2023-02-17T16:40:31.946Z,96698.69
2023-02-17T16:42:58.760Z,96696.06
2023-02-17T16:45:28.009Z,96690.50
2023-02-17T16:47:58.154Z,96680.09
2023-02-17T16:50:28.034Z,96695.66
2023-02-17T16:52:58.340Z,96662.88
2023-02-17T16:55:28.321Z,96696.44
2023-02-17T16:57:55.587Z,96701.72
2023-02-17T17:00:26.349Z,96697.38
2023-02-17T17:02:53.398Z,96683.38
2023-02-17T17:05:20.905Z,96688.47
2023-02-17T17:07:47.959Z,96702.91
2023-02-17T17:10:20.904Z,96701.81
2023-02-17T17:12:47.615Z,96651.00
2023-02-17T17:15:14.782Z,96703.41
2023-02-17T17:17:45.832Z,96708.22
2023-02-17T17:20:16.464Z,96707.13
2023-02-17T17:22:43.665Z,96717.69
2023-02-17T17:25:10.519Z,96695.91
2023-02-17T17:27:37.463Z,96679.16
2023-02-17T17:30:06.477Z,96708.69
2023-02-17T17:32:33.197Z,96661.59
2023-02-17T17:34:59.790Z,96670.94
2023-02-17T17:37:26.434Z,96665.53
2023-02-17T17:39:53.055Z,96685.09
2023-02-17T17:42:19.771Z,96637.09
2023-02-17T17:44:46.345Z,96679.69
2023-02-17T17:47:24.784Z,96684.91
2023-02-17T17:49:56.238Z,96686.41
2023-02-17T17:52:22.861Z,96680.84
2023-02-17T17:54:49.516Z,96666.34
2023-02-17T17:57:16.214Z,96683.16
2023-02-17T17:59:42.855Z,96661.72
2023-02-17T18:02:09.490Z,96701.47
2023-02-17T18:04:36.140Z,96702.38
2023-02-17T18:07:03.408Z,96723.00
2023-02-17T18:09:34.974Z,96720.72
2023-02-17T18:12:05.686Z,96700.16
2023-02-17T18:14:33.050Z,96731.88
2023-02-17T18:16:59.773Z,96689.16
2023-02-17T18:19:26.735Z,96712.47
2023-02-17T18:21:53.335Z,96716.88
2023-02-17T18:24:19.978Z,96717.66
2023-02-17T18:26:46.571Z,96723.59
2023-02-17T18:29:13.247Z,96728.69
2023-02-17T18:31:40.149Z,96687.41
2023-02-17T18:34:06.911Z,96720.06
2023-02-17T18:36:33.721Z,96694.09
2023-02-17T18:39:00.492Z,96686.06
2023-02-17T18:41:29.833Z,96667.59
2023-02-17T18:43:57.570Z,96681.84
2023-02-17T18:46:26.900Z,96695.03
2023-02-17T18:48:55.362Z,96657.00
2023-02-17T18:51:23.918Z,96694.56
2023-02-17T18:53:51.216Z,96651.03
2023-02-17T18:56:22.500Z,96694.09
2023-02-17T18:58:50.870Z,96693.16
2023-02-17T19:01:22.810Z,96666.81
2023-02-17T19:03:49.740Z,96704.16
2023-02-17T19:06:20.573Z,96711.28
2023-02-17T19:08:47.930Z,96694.16
2023-02-17T19:11:16.382Z,96716.06
2023-02-17T19:13:43.083Z,96698.13
2023-02-17T19:16:12.498Z,96717.31
2023-02-17T19:18:40.538Z,96650.38
2023-02-17T19:21:07.545Z,96691.75
2023-02-17T19:23:35.968Z,96683.84
2023-02-17T19:26:05.644Z,96671.16
2023-02-17T19:28:33.474Z,96643.50
2023-02-17T19:31:00.263Z,96663.88
2023-02-17T19:33:27.468Z,96634.94
2023-02-17T19:35:54.347Z,96642.63
2023-02-17T19:38:21.169Z,96670.91
2023-02-17T19:40:47.879Z,96635.19
2023-02-17T19:43:14.528Z,96652.56
2023-02-17T19:45:41.230Z,96624.31
2023-02-17T19:48:09.237Z,96695.66
2023-02-17T19:50:37.910Z,96699.22
2023-02-17T19:53:04.877Z,96688.78
2023-02-17T19:55:31.534Z,96639.78
2023-02-17T19:57:58.179Z,96728.69
2023-02-17T20:00:25.090Z,96687.50
2023-02-17T20:02:51.851Z,96679.59
2023-02-17T20:05:18.522Z,96717.09
2023-02-17T20:07:45.243Z,96670.75
2023-02-17T20:10:12.502Z,96701.13
2023-02-17T20:12:39.373Z,96728.13
2023-02-17T20:15:07.757Z,96689.84
2023-02-17T20:17:34.530Z,96703.56
2023-02-17T20:20:01.254Z,96678.41
2023-02-17T20:22:28.005Z,96728.28
2023-02-17T20:24:54.707Z,96727.50
2023-02-17T20:27:21.664Z,96741.66
2023-02-17T20:29:48.439Z,96720.81
2023-02-17T20:32:15.187Z,96697.38
2023-02-17T20:34:41.999Z,96700.31
2023-02-17T20:37:09.660Z,96735.25
2023-02-17T20:39:38.537Z,96725.19
2023-02-17T20:42:05.856Z,96744.41
2023-02-17T20:44:32.597Z,96711.63
2023-02-17T20:46:59.750Z,96729.88
2023-02-17T20:49:26.722Z,96709.75
2023-02-17T20:51:54.109Z,96742.53
2023-02-17T20:54:20.993Z,96697.66
2023-02-17T20:56:48.647Z,96726.88
2023-02-17T20:59:15.415Z,96717.66
2023-02-17T21:01:42.843Z,96727.22
2023-02-17T21:04:10.486Z,96721.56
2023-02-17T21:06:41.176Z,96737.72
2023-02-17T21:09:14.155Z,96724.19
2023-02-17T21:11:41.434Z,96717.03
2023-02-17T21:14:08.174Z,96729.75
2023-02-17T21:16:35.855Z,96727.88
2023-02-17T21:19:03.150Z,96756.16
2023-02-17T21:21:31.089Z,96765.78
2023-02-17T21:23:58.262Z,96773.28
2023-02-17T21:26:24.966Z,96764.72
2023-02-17T21:28:51.639Z,96741.38
2023-02-17T21:31:19.032Z,96772.75
2023-02-17T21:33:45.794Z,96773.88
2023-02-17T21:36:15.272Z,96762.38
2023-02-17T21:38:42.067Z,96756.47
2023-02-17T21:41:14.903Z,96760.31
2023-02-17T21:44:00.591Z,96756.00
2023-02-17T21:46:27.964Z,96758.09
2023-02-17T21:48:55.357Z,96766.53
2023-02-17T21:51:21.981Z,96777.88
2023-02-17T21:53:48.806Z,96745.16
2023-02-17T21:56:15.732Z,96760.31
2023-02-17T21:58:49.714Z,96669.44
2023-02-17T22:01:17.565Z,96764.75
2023-02-17T22:03:44.474Z,96710.88
2023-02-17T22:06:17.844Z,96756.06
2023-02-17T22:08:45.223Z,96761.78
2023-02-17T22:11:20.450Z,96757.31
2023-02-17T22:13:47.618Z,96755.75
2023-02-17T22:16:14.735Z,96774.66
2023-02-17T22:18:41.690Z,96760.38
2023-02-17T22:21:13.647Z,96730.00
2023-02-17T22:23:41.391Z,96759.59
2023-02-17T22:26:09.415Z,96759.41
2023-02-17T22:28:36.869Z,96759.69
2023-02-17T22:31:04.377Z,96752.41
2023-02-17T22:33:31.093Z,96767.72
2023-02-17T22:36:10.338Z,96769.28
2023-02-17T22:38:37.582Z,96745.84
2023-02-17T22:41:13.314Z,96747.72
2023-02-17T22:43:41.793Z,96752.84
2023-02-17T22:46:10.829Z,96772.13
2023-02-17T22:48:39.030Z,96765.31
2023-02-17T22:51:11.551Z,96771.19
2023-02-17T22:53:38.821Z,96749.56
2023-02-17T22:56:06.636Z,96758.31
2023-02-17T22:58:33.801Z,96758.78
2023-02-17T23:01:11.144Z,96751.78
2023-02-17T23:03:37.961Z,96735.75
2023-02-17T23:06:14.441Z,96755.47
2023-02-17T23:08:43.123Z,96763.63
2023-02-17T23:11:12.875Z,96753.28
2023-02-17T23:13:40.091Z,96728.84
2023-02-17T23:16:08.142Z,96750.94
2023-02-17T23:18:35.971Z,96751.41
2023-02-17T23:21:12.201Z,96747.88
2023-02-17T23:23:39.285Z,96761.81
2023-02-17T23:26:06.564Z,96741.13
2023-02-17T23:28:33.753Z,96755.00
2023-02-17T23:31:00.600Z,96720.28
2023-02-17T23:33:27.328Z,96722.03
2023-02-17T23:35:53.929Z,96754.19
2023-02-17T23:38:21.490Z,96735.84
2023-02-17T23:40:52.903Z,96763.13
2023-02-17T23:43:20.263Z,96721.25
2023-02-17T23:45:47.039Z,96758.63
2023-02-17T23:48:14.012Z,96754.41
2023-02-17T23:50:40.830Z,96733.22
2023-02-17T23:53:08.044Z,96755.31
2023-02-17T23:55:34.681Z,96752.59
2023-02-17T23:58:01.628Z,96724.66
